sensor_id;sensor_type;location;lat;lon;timestamp;temperature;humidity
52531;DHT22;38441;52.894;6.040;2022-10-26T00:19:37;11.30;99.90
52531;DHT22;38441;52.894;6.040;2022-10-26T00:25:03;11.20;99.90
52531;DHT22;38441;52.894;6.040;2022-10-26T00:29:59;11.00;99.90
52531;DHT22;38441;52.894;6.040;2022-10-26T00:35:04;11.10;99.90
52531;DHT22;38441;52.894;6.040;2022-10-26T00:37:32;11.10;99.90
52531;DHT22;38441;52.894;6.040;2022-10-26T00:40:03;11.00;99.90
52531;DHT22;38441;52.894;6.040;2022-10-26T00:45:25;10.90;99.90
52531;DHT22;38441;52.894;6.040;2022-10-26T00:48:04;10.90;99.90
52531;DHT22;38441;52.894;6.040;2022-10-26T00:50:58;10.90;99.90
52531;DHT22;38441;52.894;6.040;2022-10-26T00:55:54;10.70;99.90
52531;DHT22;38441;52.894;6.040;2022-10-26T00:58:42;10.90;99.90
52531;DHT22;38441;52.894;6.040;2022-10-26T01:06:07;10.80;99.90
52531;DHT22;38441;52.894;6.040;2022-10-26T01:11:37;10.60;99.90
52531;DHT22;38441;52.894;6.040;2022-10-26T01:14:19;10.50;99.90
52531;DHT22;38441;52.894;6.040;2022-10-26T01:26:01;10.40;99.90
52531;DHT22;38441;52.894;6.040;2022-10-26T01:31:28;10.50;99.90
52531;DHT22;38441;52.894;6.040;2022-10-26T01:34:07;10.40;99.90
52531;DHT22;38441;52.894;6.040;2022-10-26T01:37:21;10.40;99.90
52531;DHT22;38441;52.894;6.040;2022-10-26T01:39:54;10.30;99.90
52531;DHT22;38441;52.894;6.040;2022-10-26T01:44:55;10.30;99.90
52531;DHT22;38441;52.894;6.040;2022-10-26T01:47:30;10.30;99.90
52531;DHT22;38441;52.894;6.040;2022-10-26T01:50:04;10.30;99.90
52531;DHT22;38441;52.894;6.040;2022-10-26T02:17:53;10.30;99.90
52531;DHT22;38441;52.894;6.040;2022-10-26T02:20:32;10.00;99.90
52531;DHT22;38441;52.894;6.040;2022-10-26T02:23:09;10.10;99.90
52531;DHT22;38441;52.894;6.040;2022-10-26T02:25:43;10.10;99.90
52531;DHT22;38441;52.894;6.040;2022-10-26T02:28:21;10.00;99.90
52531;DHT22;38441;52.894;6.040;2022-10-26T02:30:51;10.00;99.90
52531;DHT22;38441;52.894;6.040;2022-10-26T02:33:43;10.10;99.90
52531;DHT22;38441;52.894;6.040;2022-10-26T02:36:15;9.90;99.90
52531;DHT22;38441;52.894;6.040;2022-10-26T02:39:00;9.90;99.90
52531;DHT22;38441;52.894;6.040;2022-10-26T02:41:52;10.00;99.90
52531;DHT22;38441;52.894;6.040;2022-10-26T02:44:45;10.00;99.90
52531;DHT22;38441;52.894;6.040;2022-10-26T02:49:58;9.90;99.90
52531;DHT22;38441;52.894;6.040;2022-10-26T02:52:56;10.00;99.90
52531;DHT22;38441;52.894;6.040;2022-10-26T02:55:53;9.90;99.90
52531;DHT22;38441;52.894;6.040;2022-10-26T03:01:50;9.90;99.90
52531;DHT22;38441;52.894;6.040;2022-10-26T03:04:31;10.00;99.90
52531;DHT22;38441;52.894;6.040;2022-10-26T03:09:55;10.00;99.90
52531;DHT22;38441;52.894;6.040;2022-10-26T03:15:11;9.90;99.90
52531;DHT22;38441;52.894;6.040;2022-10-26T03:17:42;9.90;99.90
52531;DHT22;38441;52.894;6.040;2022-10-26T03:25:49;10.00;99.90
52531;DHT22;38441;52.894;6.040;2022-10-26T03:33:30;9.80;99.90
52531;DHT22;38441;52.894;6.040;2022-10-26T03:36:03;9.90;99.90
52531;DHT22;38441;52.894;6.040;2022-10-26T03:41:19;10.00;99.90
52531;DHT22;38441;52.894;6.040;2022-10-26T03:43:50;9.80;99.90
52531;DHT22;38441;52.894;6.040;2022-10-26T03:46:28;9.90;99.90
52531;DHT22;38441;52.894;6.040;2022-10-26T03:48:56;9.90;99.90
52531;DHT22;38441;52.894;6.040;2022-10-26T04:20:49;9.90;99.90
52531;DHT22;38441;52.894;6.040;2022-10-26T04:23:22;10.10;99.90
52531;DHT22;38441;52.894;6.040;2022-10-26T04:31:08;10.10;99.90
52531;DHT22;38441;52.894;6.040;2022-10-26T04:38:41;10.20;99.90
52531;DHT22;38441;52.894;6.040;2022-10-26T04:46:39;10.40;99.90
52531;DHT22;38441;52.894;6.040;2022-10-26T04:51:50;10.40;99.90
52531;DHT22;38441;52.894;6.040;2022-10-26T04:54:39;10.40;99.90
52531;DHT22;38441;52.894;6.040;2022-10-26T05:02:14;10.40;99.90
52531;DHT22;38441;52.894;6.040;2022-10-26T05:11:53;10.50;99.90
52531;DHT22;38441;52.894;6.040;2022-10-26T05:26:36;10.70;99.90
52531;DHT22;38441;52.894;6.040;2022-10-26T05:31:56;10.60;99.90
52531;DHT22;38441;52.894;6.040;2022-10-26T05:34:25;10.80;99.90
52531;DHT22;38441;52.894;6.040;2022-10-26T05:36:59;10.60;99.90
52531;DHT22;38441;52.894;6.040;2022-10-26T05:39:28;10.60;99.90
52531;DHT22;38441;52.894;6.040;2022-10-26T05:42:03;10.60;99.90
52531;DHT22;38441;52.894;6.040;2022-10-26T05:45:06;10.70;99.90
52531;DHT22;38441;52.894;6.040;2022-10-26T05:53:24;10.70;99.90
52531;DHT22;38441;52.894;6.040;2022-10-26T05:55:55;10.80;99.90
52531;DHT22;38441;52.894;6.040;2022-10-26T06:06:52;10.80;99.90
52531;DHT22;38441;52.894;6.040;2022-10-26T06:09:29;10.80;99.90
52531;DHT22;38441;52.894;6.040;2022-10-26T06:17:07;10.70;99.90
52531;DHT22;38441;52.894;6.040;2022-10-26T06:28:06;10.60;99.90
52531;DHT22;38441;52.894;6.040;2022-10-26T06:33:22;10.90;99.90
52531;DHT22;38441;52.894;6.040;2022-10-26T06:36:26;10.90;99.90
52531;DHT22;38441;52.894;6.040;2022-10-26T06:38:57;10.80;99.90
52531;DHT22;38441;52.894;6.040;2022-10-26T06:41:47;10.80;99.90
52531;DHT22;38441;52.894;6.040;2022-10-26T06:44:45;10.90;99.90
52531;DHT22;38441;52.894;6.040;2022-10-26T06:47:25;11.00;99.90
52531;DHT22;38441;52.894;6.040;2022-10-26T06:56:18;10.90;99.90
52531;DHT22;38441;52.894;6.040;2022-10-26T06:58:47;11.00;99.90
52531;DHT22;38441;52.894;6.040;2022-10-26T07:11:01;11.10;99.90
52531;DHT22;38441;52.894;6.040;2022-10-26T11:01:47;16.50;99.90
52531;DHT22;38441;52.894;6.040;2022-10-26T11:07:11;16.60;99.90
52531;DHT22;38441;52.894;6.040;2022-10-26T11:09:40;16.80;99.90
52531;DHT22;38441;52.894;6.040;2022-10-26T11:12:27;16.50;99.90
52531;DHT22;38441;52.894;6.040;2022-10-26T11:15:30;17.00;99.90
52531;DHT22;38441;52.894;6.040;2022-10-26T11:18:21;17.80;99.90
52531;DHT22;38441;52.894;6.040;2022-10-26T11:20:55;17.10;99.90
52531;DHT22;38441;52.894;6.040;2022-10-26T11:24:00;17.00;99.90
52531;DHT22;38441;52.894;6.040;2022-10-26T11:29:34;17.30;99.90
52531;DHT22;38441;52.894;6.040;2022-10-26T11:32:26;19.70;99.90
52531;DHT22;38441;52.894;6.040;2022-10-26T11:35:10;17.50;99.90
52531;DHT22;38441;52.894;6.040;2022-10-26T11:40:37;17.00;99.90
52531;DHT22;38441;52.894;6.040;2022-10-26T11:43:45;17.30;99.90
52531;DHT22;38441;52.894;6.040;2022-10-26T11:46:26;17.80;99.90
52531;DHT22;38441;52.894;6.040;2022-10-26T11:51:46;17.50;99.90
52531;DHT22;38441;52.894;6.040;2022-10-26T11:54:33;18.00;99.90
52531;DHT22;38441;52.894;6.040;2022-10-26T11:57:00;17.60;99.90
52531;DHT22;38441;52.894;6.040;2022-10-26T11:59:30;15.60;99.90
52531;DHT22;38441;52.894;6.040;2022-10-26T12:02:13;17.60;99.90
52531;DHT22;38441;52.894;6.040;2022-10-26T12:04:41;18.00;99.90
52531;DHT22;38441;52.894;6.040;2022-10-26T12:07:19;17.70;99.90
52531;DHT22;38441;52.894;6.040;2022-10-26T12:09:49;17.90;99.90
52531;DHT22;38441;52.894;6.040;2022-10-26T12:20:57;20.50;99.90
52531;DHT22;38441;52.894;6.040;2022-10-26T12:23:35;18.00;99.90
52531;DHT22;38441;52.894;6.040;2022-10-26T12:39:43;17.40;99.90
52531;DHT22;38441;52.894;6.040;2022-10-26T12:52:56;18.80;99.90
52531;DHT22;38441;52.894;6.040;2022-10-26T12:55:58;15.90;99.90
52531;DHT22;38441;52.894;6.040;2022-10-26T12:59:02;16.20;99.90
52531;DHT22;38441;52.894;6.040;2022-10-26T13:01:42;17.50;99.90
52531;DHT22;38441;52.894;6.040;2022-10-26T13:07:24;17.40;99.90
52531;DHT22;38441;52.894;6.040;2022-10-26T13:10:05;18.80;99.90
52531;DHT22;38441;52.894;6.040;2022-10-26T13:12:51;17.40;99.90
52531;DHT22;38441;52.894;6.040;2022-10-26T13:15:33;17.30;99.90
52531;DHT22;38441;52.894;6.040;2022-10-26T13:18:15;19.30;99.90
52531;DHT22;38441;52.894;6.040;2022-10-26T13:21:07;17.70;99.90
52531;DHT22;38441;52.894;6.040;2022-10-26T13:23:55;15.60;99.90
52531;DHT22;38441;52.894;6.040;2022-10-26T13:30:26;17.30;99.90
52531;DHT22;38441;52.894;6.040;2022-10-26T13:33:02;18.20;99.90
52531;DHT22;38441;52.894;6.040;2022-10-26T13:35:30;17.30;99.90
52531;DHT22;38441;52.894;6.040;2022-10-26T13:37:56;16.00;99.90
52531;DHT22;38441;52.894;6.040;2022-10-26T13:40:26;17.50;99.90
52531;DHT22;38441;52.894;6.040;2022-10-26T13:42:57;17.40;99.90
52531;DHT22;38441;52.894;6.040;2022-10-26T13:48:19;19.40;99.90
52531;DHT22;38441;52.894;6.040;2022-10-26T13:51:03;17.00;99.90
52531;DHT22;38441;52.894;6.040;2022-10-26T13:53:44;17.40;99.90
52531;DHT22;38441;52.894;6.040;2022-10-26T13:56:31;17.40;99.90
52531;DHT22;38441;52.894;6.040;2022-10-26T13:59:02;19.30;99.90
52531;DHT22;38441;52.894;6.040;2022-10-26T14:01:39;19.00;99.90
52531;DHT22;38441;52.894;6.040;2022-10-26T14:04:16;19.00;99.90
52531;DHT22;38441;52.894;6.040;2022-10-26T14:06:50;19.70;99.90
52531;DHT22;38441;52.894;6.040;2022-10-26T14:09:17;17.70;99.90
52531;DHT22;38441;52.894;6.040;2022-10-26T14:11:54;17.40;99.90
52531;DHT22;38441;52.894;6.040;2022-10-26T14:14:34;19.30;99.90
52531;DHT22;38441;52.894;6.040;2022-10-26T14:17:02;19.60;99.90
52531;DHT22;38441;52.894;6.040;2022-10-26T14:19:31;18.80;99.90
52531;DHT22;38441;52.894;6.040;2022-10-26T14:21:59;19.40;99.90
52531;DHT22;38441;52.894;6.040;2022-10-26T14:24:37;17.90;99.90
52531;DHT22;38441;52.894;6.040;2022-10-26T14:27:17;17.50;99.90
52531;DHT22;38441;52.894;6.040;2022-10-26T14:29:43;17.40;99.90
52531;DHT22;38441;52.894;6.040;2022-10-26T14:32:30;17.20;99.90
52531;DHT22;38441;52.894;6.040;2022-10-26T14:35:00;18.90;99.90
52531;DHT22;38441;52.894;6.040;2022-10-26T14:37:50;17.10;99.90
52531;DHT22;38441;52.894;6.040;2022-10-26T14:40:19;17.60;99.90
52531;DHT22;38441;52.894;6.040;2022-10-26T14:42:59;17.70;99.90
52531;DHT22;38441;52.894;6.040;2022-10-26T14:45:30;18.10;99.90
52531;DHT22;38441;52.894;6.040;2022-10-26T14:48:05;16.50;99.90
52531;DHT22;38441;52.894;6.040;2022-10-26T14:50:32;18.00;99.90
52531;DHT22;38441;52.894;6.040;2022-10-26T14:53:14;18.40;99.90
52531;DHT22;38441;52.894;6.040;2022-10-26T14:55:50;17.70;99.90
52531;DHT22;38441;52.894;6.040;2022-10-26T14:58:37;16.20;99.90
52531;DHT22;38441;52.894;6.040;2022-10-26T15:01:23;17.20;99.90
52531;DHT22;38441;52.894;6.040;2022-10-26T15:04:01;16.90;99.90
52531;DHT22;38441;52.894;6.040;2022-10-26T15:06:44;16.90;99.90
52531;DHT22;38441;52.894;6.040;2022-10-26T15:09:31;18.80;99.90
52531;DHT22;38441;52.894;6.040;2022-10-26T15:11:57;16.70;99.90
52531;DHT22;38441;52.894;6.040;2022-10-26T15:14:24;17.90;99.90
52531;DHT22;38441;52.894;6.040;2022-10-26T15:17:02;19.40;99.90
52531;DHT22;38441;52.894;6.040;2022-10-26T15:19:28;17.00;99.90
52531;DHT22;38441;52.894;6.040;2022-10-26T15:21:57;18.40;99.90
52531;DHT22;38441;52.894;6.040;2022-10-26T15:24:32;16.20;99.90
52531;DHT22;38441;52.894;6.040;2022-10-26T15:27:00;16.00;99.90
52531;DHT22;38441;52.894;6.040;2022-10-26T15:30:07;16.80;99.90
52531;DHT22;38441;52.894;6.040;2022-10-26T15:32:33;16.60;99.90
52531;DHT22;38441;52.894;6.040;2022-10-26T15:35:14;16.90;99.90
52531;DHT22;38441;52.894;6.040;2022-10-26T15:37:46;16.80;99.90
52531;DHT22;38441;52.894;6.040;2022-10-26T15:40:12;16.80;99.90
52531;DHT22;38441;52.894;6.040;2022-10-26T15:42:39;17.20;99.90
52531;DHT22;38441;52.894;6.040;2022-10-26T15:45:19;16.80;99.90
52531;DHT22;38441;52.894;6.040;2022-10-26T15:47:45;16.60;99.90
52531;DHT22;38441;52.894;6.040;2022-10-26T15:50:29;16.90;99.90
52531;DHT22;38441;52.894;6.040;2022-10-26T15:53:00;16.70;99.90
52531;DHT22;38441;52.894;6.040;2022-10-26T15:55:27;17.60;99.90
52531;DHT22;38441;52.894;6.040;2022-10-26T15:57:54;16.70;99.90
52531;DHT22;38441;52.894;6.040;2022-10-26T16:00:20;16.80;99.90
52531;DHT22;38441;52.894;6.040;2022-10-26T16:02:46;16.70;99.90
52531;DHT22;38441;52.894;6.040;2022-10-26T16:05:13;17.90;99.90
52531;DHT22;38441;52.894;6.040;2022-10-26T16:07:41;18.70;99.90
52531;DHT22;38441;52.894;6.040;2022-10-26T16:10:21;18.60;99.90
52531;DHT22;38441;52.894;6.040;2022-10-26T16:12:47;18.30;99.90
52531;DHT22;38441;52.894;6.040;2022-10-26T16:15:24;16.60;99.90
52531;DHT22;38441;52.894;6.040;2022-10-26T16:17:50;16.70;99.90
52531;DHT22;38441;52.894;6.040;2022-10-26T16:20:19;16.60;99.90
52531;DHT22;38441;52.894;6.040;2022-10-26T16:22:47;17.00;99.90
52531;DHT22;38441;52.894;6.040;2022-10-26T16:25:15;18.40;99.90
52531;DHT22;38441;52.894;6.040;2022-10-26T16:27:41;16.60;99.90
52531;DHT22;38441;52.894;6.040;2022-10-26T16:30:08;16.50;99.90
52531;DHT22;38441;52.894;6.040;2022-10-26T16:32:34;16.90;99.90
52531;DHT22;38441;52.894;6.040;2022-10-26T16:35:00;16.10;99.90
52531;DHT22;38441;52.894;6.040;2022-10-26T16:37:30;18.00;99.90
52531;DHT22;38441;52.894;6.040;2022-10-26T16:39:57;18.40;99.90
52531;DHT22;38441;52.894;6.040;2022-10-26T16:42:23;16.50;99.90
52531;DHT22;38441;52.894;6.040;2022-10-26T16:44:49;16.50;99.90
52531;DHT22;38441;52.894;6.040;2022-10-26T16:47:14;16.40;99.90
52531;DHT22;38441;52.894;6.040;2022-10-26T16:49:40;16.50;99.90
52531;DHT22;38441;52.894;6.040;2022-10-26T16:52:11;16.90;99.90
52531;DHT22;38441;52.894;6.040;2022-10-26T16:54:36;18.00;99.90
52531;DHT22;38441;52.894;6.040;2022-10-26T16:57:02;17.30;99.90
52531;DHT22;38441;52.894;6.040;2022-10-26T16:59:28;16.40;99.90
52531;DHT22;38441;52.894;6.040;2022-10-26T17:01:56;17.90;99.90
52531;DHT22;38441;52.894;6.040;2022-10-26T17:04:22;16.30;99.90
52531;DHT22;38441;52.894;6.040;2022-10-26T17:06:48;16.20;99.90
52531;DHT22;38441;52.894;6.040;2022-10-26T17:09:28;17.00;99.90
52531;DHT22;38441;52.894;6.040;2022-10-26T17:11:54;16.50;99.90
52531;DHT22;38441;52.894;6.040;2022-10-26T17:14:20;16.30;99.90
52531;DHT22;38441;52.894;6.040;2022-10-26T17:19:34;16.60;99.90
52531;DHT22;38441;52.894;6.040;2022-10-26T17:22:00;16.40;99.90
52531;DHT22;38441;52.894;6.040;2022-10-26T17:24:26;16.20;99.90
52531;DHT22;38441;52.894;6.040;2022-10-26T17:27:00;16.20;99.90
52531;DHT22;38441;52.894;6.040;2022-10-26T17:29:26;16.60;99.90
52531;DHT22;38441;52.894;6.040;2022-10-26T17:31:55;16.10;99.90
52531;DHT22;38441;52.894;6.040;2022-10-26T17:34:21;14.50;99.90
52531;DHT22;38441;52.894;6.040;2022-10-26T17:36:48;16.10;99.90
52531;DHT22;38441;52.894;6.040;2022-10-26T17:39:14;16.40;99.90
52531;DHT22;38441;52.894;6.040;2022-10-26T17:41:53;16.20;99.90
52531;DHT22;38441;52.894;6.040;2022-10-26T17:44:28;18.80;99.90
52531;DHT22;38441;52.894;6.040;2022-10-26T17:50:29;16.20;99.90
52531;DHT22;38441;52.894;6.040;2022-10-26T17:52:57;16.00;99.90
52531;DHT22;38441;52.894;6.040;2022-10-26T17:55:26;15.80;99.90
52531;DHT22;38441;52.894;6.040;2022-10-26T17:57:54;15.90;99.90
52531;DHT22;38441;52.894;6.040;2022-10-26T18:00:20;15.90;99.90
52531;DHT22;38441;52.894;6.040;2022-10-26T18:02:45;15.90;99.90
52531;DHT22;38441;52.894;6.040;2022-10-26T18:05:11;16.00;99.90
52531;DHT22;38441;52.894;6.040;2022-10-26T18:07:36;15.90;99.90
52531;DHT22;38441;52.894;6.040;2022-10-26T18:10:02;16.00;99.90
52531;DHT22;38441;52.894;6.040;2022-10-26T18:12:29;15.90;99.90
52531;DHT22;38441;52.894;6.040;2022-10-26T18:14:56;16.10;99.90
52531;DHT22;38441;52.894;6.040;2022-10-26T18:17:22;15.90;99.90
52531;DHT22;38441;52.894;6.040;2022-10-26T18:19:48;15.90;99.90
52531;DHT22;38441;52.894;6.040;2022-10-26T18:22:13;15.70;99.90
52531;DHT22;38441;52.894;6.040;2022-10-26T18:24:39;15.70;99.90
52531;DHT22;38441;52.894;6.040;2022-10-26T18:27:05;15.80;99.90
52531;DHT22;38441;52.894;6.040;2022-10-26T18:29:32;17.40;99.90
52531;DHT22;38441;52.894;6.040;2022-10-26T18:31:58;15.60;99.90
52531;DHT22;38441;52.894;6.040;2022-10-26T18:34:24;15.60;99.90
52531;DHT22;38441;52.894;6.040;2022-10-26T18:36:49;15.60;99.90
52531;DHT22;38441;52.894;6.040;2022-10-26T18:39:15;15.80;99.90
52531;DHT22;38441;52.894;6.040;2022-10-26T18:41:40;15.60;99.90
52531;DHT22;38441;52.894;6.040;2022-10-26T18:44:07;14.30;99.90
52531;DHT22;38441;52.894;6.040;2022-10-26T18:46:37;15.80;99.90
52531;DHT22;38441;52.894;6.040;2022-10-26T18:49:04;15.70;99.90
52531;DHT22;38441;52.894;6.040;2022-10-26T18:51:32;15.60;99.90
52531;DHT22;38441;52.894;6.040;2022-10-26T18:53:58;15.60;99.90
52531;DHT22;38441;52.894;6.040;2022-10-26T18:56:26;15.50;99.90
52531;DHT22;38441;52.894;6.040;2022-10-26T18:58:55;15.70;99.90
52531;DHT22;38441;52.894;6.040;2022-10-26T19:01:25;15.70;99.90
52531;DHT22;38441;52.894;6.040;2022-10-26T19:03:53;15.40;99.90
52531;DHT22;38441;52.894;6.040;2022-10-26T19:06:23;15.50;99.90
52531;DHT22;38441;52.894;6.040;2022-10-26T19:08:50;15.40;99.90
52531;DHT22;38441;52.894;6.040;2022-10-26T19:11:26;15.50;99.90
52531;DHT22;38441;52.894;6.040;2022-10-26T19:13:52;15.60;99.90
52531;DHT22;38441;52.894;6.040;2022-10-26T19:16:23;15.40;99.90
52531;DHT22;38441;52.894;6.040;2022-10-26T19:18:49;15.50;99.90
52531;DHT22;38441;52.894;6.040;2022-10-26T19:21:17;15.30;99.90
52531;DHT22;38441;52.894;6.040;2022-10-26T19:23:51;15.30;99.90
52531;DHT22;38441;52.894;6.040;2022-10-26T19:26:19;16.40;99.90
52531;DHT22;38441;52.894;6.040;2022-10-26T19:28:45;15.40;99.90
52531;DHT22;38441;52.894;6.040;2022-10-26T19:31:13;15.40;99.90
52531;DHT22;38441;52.894;6.040;2022-10-26T19:33:39;15.50;99.90
52531;DHT22;38441;52.894;6.040;2022-10-26T19:36:09;14.30;99.90
52531;DHT22;38441;52.894;6.040;2022-10-26T19:38:35;15.60;99.90
52531;DHT22;38441;52.894;6.040;2022-10-26T19:41:03;15.40;99.90
52531;DHT22;38441;52.894;6.040;2022-10-26T19:43:33;15.70;99.90
52531;DHT22;38441;52.894;6.040;2022-10-26T19:46:06;15.30;99.90
52531;DHT22;38441;52.894;6.040;2022-10-26T19:48:32;15.30;99.90
52531;DHT22;38441;52.894;6.040;2022-10-26T19:50:58;15.20;99.90
52531;DHT22;38441;52.894;6.040;2022-10-26T19:53:23;15.20;99.90
52531;DHT22;38441;52.894;6.040;2022-10-26T19:55:56;15.30;99.90
52531;DHT22;38441;52.894;6.040;2022-10-26T19:58:26;15.30;99.90
52531;DHT22;38441;52.894;6.040;2022-10-26T20:00:57;15.10;99.90
52531;DHT22;38441;52.894;6.040;2022-10-26T20:03:23;15.30;99.90
52531;DHT22;38441;52.894;6.040;2022-10-26T20:05:49;15.30;99.90
52531;DHT22;38441;52.894;6.040;2022-10-26T20:08:14;15.40;99.90
52531;DHT22;38441;52.894;6.040;2022-10-26T20:10:41;15.10;99.90
52531;DHT22;38441;52.894;6.040;2022-10-26T20:13:11;15.10;99.90
52531;DHT22;38441;52.894;6.040;2022-10-26T20:15:37;15.40;99.90
52531;DHT22;38441;52.894;6.040;2022-10-26T20:18:03;15.10;99.90
52531;DHT22;38441;52.894;6.040;2022-10-26T20:20:29;16.00;99.90
52531;DHT22;38441;52.894;6.040;2022-10-26T20:22:56;15.10;99.90
52531;DHT22;38441;52.894;6.040;2022-10-26T20:25:22;15.00;99.90
52531;DHT22;38441;52.894;6.040;2022-10-26T20:27:48;15.10;99.90
52531;DHT22;38441;52.894;6.040;2022-10-26T20:30:14;15.90;99.90
52531;DHT22;38441;52.894;6.040;2022-10-26T20:32:40;15.10;99.90
52531;DHT22;38441;52.894;6.040;2022-10-26T20:35:05;15.00;99.90
52531;DHT22;38441;52.894;6.040;2022-10-26T20:37:31;15.00;99.90
52531;DHT22;38441;52.894;6.040;2022-10-26T20:39:57;15.00;99.90
52531;DHT22;38441;52.894;6.040;2022-10-26T20:42:31;15.00;99.90
52531;DHT22;38441;52.894;6.040;2022-10-26T20:45:26;15.90;99.90
52531;DHT22;38441;52.894;6.040;2022-10-26T20:47:58;15.10;99.90
52531;DHT22;38441;52.894;6.040;2022-10-26T20:50:25;15.10;99.90
52531;DHT22;38441;52.894;6.040;2022-10-26T20:52:55;15.10;99.90
52531;DHT22;38441;52.894;6.040;2022-10-26T20:58:00;15.00;99.90
52531;DHT22;38441;52.894;6.040;2022-10-26T21:00:27;15.00;99.90
52531;DHT22;38441;52.894;6.040;2022-10-26T21:05:30;15.10;99.90
52531;DHT22;38441;52.894;6.040;2022-10-26T21:10:28;15.00;99.90
52531;DHT22;38441;52.894;6.040;2022-10-26T21:12:54;15.00;99.90
52531;DHT22;38441;52.894;6.040;2022-10-26T21:15:19;14.90;99.90
52531;DHT22;38441;52.894;6.040;2022-10-26T21:17:45;15.00;99.90
52531;DHT22;38441;52.894;6.040;2022-10-26T21:20:11;16.40;99.90
52531;DHT22;38441;52.894;6.040;2022-10-26T21:22:36;14.80;99.90
52531;DHT22;38441;52.894;6.040;2022-10-26T21:25:02;14.90;99.90
52531;DHT22;38441;52.894;6.040;2022-10-26T21:27:28;15.80;99.90
52531;DHT22;38441;52.894;6.040;2022-10-26T21:29:53;15.60;99.90
52531;DHT22;38441;52.894;6.040;2022-10-26T21:32:19;14.80;99.90
52531;DHT22;38441;52.894;6.040;2022-10-26T21:34:44;14.70;99.90
52531;DHT22;38441;52.894;6.040;2022-10-26T21:37:10;14.70;99.90
52531;DHT22;38441;52.894;6.040;2022-10-26T21:39:35;14.90;99.90
52531;DHT22;38441;52.894;6.040;2022-10-26T21:42:01;14.80;99.90
52531;DHT22;38441;52.894;6.040;2022-10-26T21:44:27;14.80;99.90
52531;DHT22;38441;52.894;6.040;2022-10-26T21:46:52;14.80;99.90
52531;DHT22;38441;52.894;6.040;2022-10-26T21:49:18;14.70;99.90
52531;DHT22;38441;52.894;6.040;2022-10-26T21:51:44;14.70;99.90
52531;DHT22;38441;52.894;6.040;2022-10-26T21:54:10;14.90;99.90
52531;DHT22;38441;52.894;6.040;2022-10-26T21:56:36;14.60;99.90
52531;DHT22;38441;52.894;6.040;2022-10-26T21:59:01;14.60;99.90
52531;DHT22;38441;52.894;6.040;2022-10-26T22:01:27;14.60;99.90
52531;DHT22;38441;52.894;6.040;2022-10-26T22:03:53;14.50;99.90
52531;DHT22;38441;52.894;6.040;2022-10-26T22:06:19;14.70;99.90
52531;DHT22;38441;52.894;6.040;2022-10-26T22:08:46;14.70;99.90
52531;DHT22;38441;52.894;6.040;2022-10-26T22:11:17;14.50;99.90
52531;DHT22;38441;52.894;6.040;2022-10-26T22:13:44;14.60;99.90
52531;DHT22;38441;52.894;6.040;2022-10-26T22:16:12;14.50;99.90
52531;DHT22;38441;52.894;6.040;2022-10-26T22:18:41;14.60;99.90
52531;DHT22;38441;52.894;6.040;2022-10-26T22:21:08;14.50;99.90
52531;DHT22;38441;52.894;6.040;2022-10-26T22:23:35;14.60;99.90
52531;DHT22;38441;52.894;6.040;2022-10-26T22:26:08;14.40;99.90
52531;DHT22;38441;52.894;6.040;2022-10-26T22:28:35;14.60;99.90
52531;DHT22;38441;52.894;6.040;2022-10-26T22:31:03;14.60;99.90
52531;DHT22;38441;52.894;6.040;2022-10-26T22:33:28;14.50;99.90
52531;DHT22;38441;52.894;6.040;2022-10-26T22:35:54;14.40;99.90
52531;DHT22;38441;52.894;6.040;2022-10-26T22:38:21;14.50;99.90
52531;DHT22;38441;52.894;6.040;2022-10-26T22:40:56;14.70;99.90
52531;DHT22;38441;52.894;6.040;2022-10-26T22:43:22;14.40;99.90
52531;DHT22;38441;52.894;6.040;2022-10-26T22:46:03;14.40;99.90
52531;DHT22;38441;52.894;6.040;2022-10-26T22:48:29;14.80;99.90
52531;DHT22;38441;52.894;6.040;2022-10-26T22:50:56;14.30;99.90
52531;DHT22;38441;52.894;6.040;2022-10-26T22:53:22;14.30;99.90
52531;DHT22;38441;52.894;6.040;2022-10-26T22:55:48;14.30;99.90
52531;DHT22;38441;52.894;6.040;2022-10-26T22:58:13;14.30;99.90
52531;DHT22;38441;52.894;6.040;2022-10-26T23:00:39;14.50;99.90
52531;DHT22;38441;52.894;6.040;2022-10-26T23:03:05;16.20;99.90
52531;DHT22;38441;52.894;6.040;2022-10-26T23:05:30;17.20;99.90
52531;DHT22;38441;52.894;6.040;2022-10-26T23:07:56;14.20;99.90
52531;DHT22;38441;52.894;6.040;2022-10-26T23:10:22;14.20;99.90
52531;DHT22;38441;52.894;6.040;2022-10-26T23:12:48;14.10;99.90
52531;DHT22;38441;52.894;6.040;2022-10-26T23:15:14;14.20;99.90
52531;DHT22;38441;52.894;6.040;2022-10-26T23:17:40;14.30;99.90
52531;DHT22;38441;52.894;6.040;2022-10-26T23:20:07;13.90;99.90
52531;DHT22;38441;52.894;6.040;2022-10-26T23:22:33;14.10;99.90
52531;DHT22;38441;52.894;6.040;2022-10-26T23:24:59;14.20;99.90
52531;DHT22;38441;52.894;6.040;2022-10-26T23:27:24;14.00;99.90
52531;DHT22;38441;52.894;6.040;2022-10-26T23:29:50;15.80;99.90
52531;DHT22;38441;52.894;6.040;2022-10-26T23:32:16;14.10;99.90
52531;DHT22;38441;52.894;6.040;2022-10-26T23:34:41;14.00;99.90
52531;DHT22;38441;52.894;6.040;2022-10-26T23:37:07;14.00;99.90
52531;DHT22;38441;52.894;6.040;2022-10-26T23:39:33;13.90;99.90
52531;DHT22;38441;52.894;6.040;2022-10-26T23:41:58;13.90;99.90
52531;DHT22;38441;52.894;6.040;2022-10-26T23:44:24;13.90;99.90
52531;DHT22;38441;52.894;6.040;2022-10-26T23:46:50;14.10;99.90
52531;DHT22;38441;52.894;6.040;2022-10-26T23:49:15;14.00;99.90
52531;DHT22;38441;52.894;6.040;2022-10-26T23:51:41;14.10;99.90
52531;DHT22;38441;52.894;6.040;2022-10-26T23:54:07;13.90;99.90
52531;DHT22;38441;52.894;6.040;2022-10-26T23:56:32;13.90;99.90
52531;DHT22;38441;52.894;6.040;2022-10-26T23:58:58;13.90;99.90
